sensor_id;sensor_type;location;lat;lon;timestamp;pressure;altitude;pressure_sealevel;temperature;humidity
80401;BME280;69727;53.132;8.230;2024-03-22T00:01:44;101958.31;;;9.20;82.39
80401;BME280;69727;53.132;8.230;2024-03-22T00:04:10;101964.00;;;9.17;82.38
80401;BME280;69727;53.132;8.230;2024-03-22T00:06:35;101964.38;;;9.22;82.67
80401;BME280;69727;53.132;8.230;2024-03-22T00:09:00;101961.34;;;9.25;82.36
80401;BME280;69727;53.132;8.230;2024-03-22T00:11:26;101950.81;;;9.24;82.20
80401;BME280;69727;53.132;8.230;2024-03-22T00:13:51;101953.34;;;9.33;81.87
80401;BME280;69727;53.132;8.230;2024-03-22T00:16:17;101954.00;;;9.27;82.28
80401;BME280;69727;53.132;8.230;2024-03-22T00:18:42;101947.50;;;9.30;82.17
80401;BME280;69727;53.132;8.230;2024-03-22T00:21:07;101941.13;;;9.31;82.08
80401;BME280;69727;53.132;8.230;2024-03-22T00:23:33;101942.34;;;9.36;82.09
80401;BME280;69727;53.132;8.230;2024-03-22T00:25:59;101933.28;;;9.37;81.84
80401;BME280;69727;53.132;8.230;2024-03-22T00:28:25;101936.28;;;9.34;82.28
80401;BME280;69727;53.132;8.230;2024-03-22T00:30:50;101927.94;;;9.37;81.82
80401;BME280;69727;53.132;8.230;2024-03-22T00:33:15;101927.56;;;9.32;82.14
80401;BME280;69727;53.132;8.230;2024-03-22T00:35:41;101922.38;;;9.31;82.13
80401;BME280;69727;53.132;8.230;2024-03-22T00:38:06;101918.38;;;9.35;82.21
80401;BME280;69727;53.132;8.230;2024-03-22T00:40:31;101910.66;;;9.40;82.14
80401;BME280;69727;53.132;8.230;2024-03-22T00:42:58;101903.44;;;9.32;82.22
80401;BME280;69727;53.132;8.230;2024-03-22T00:45:23;101905.47;;;9.30;82.60
80401;BME280;69727;53.132;8.230;2024-03-22T00:47:48;101902.78;;;9.30;82.60
80401;BME280;69727;53.132;8.230;2024-03-22T00:50:14;101896.59;;;9.38;82.49
80401;BME280;69727;53.132;8.230;2024-03-22T00:52:39;101866.22;;;9.21;82.74
80401;BME280;69727;53.132;8.230;2024-03-22T00:55:05;101880.88;;;9.43;82.31
80401;BME280;69727;53.132;8.230;2024-03-22T00:57:31;101882.72;;;9.42;82.11
80401;BME280;69727;53.132;8.230;2024-03-22T00:59:56;101870.66;;;9.38;82.51
80401;BME280;69727;53.132;8.230;2024-03-22T01:02:21;101878.84;;;9.37;82.81
80401;BME280;69727;53.132;8.230;2024-03-22T01:04:48;101883.53;;;9.35;82.80
80401;BME280;69727;53.132;8.230;2024-03-22T01:07:13;101874.31;;;9.37;82.75
80401;BME280;69727;53.132;8.230;2024-03-22T01:09:39;101866.78;;;9.41;82.71
80401;BME280;69727;53.132;8.230;2024-03-22T01:12:04;101855.88;;;9.34;82.88
80401;BME280;69727;53.132;8.230;2024-03-22T01:14:30;101855.25;;;9.49;82.49
80401;BME280;69727;53.132;8.230;2024-03-22T01:16:55;101860.59;;;9.40;82.89
80401;BME280;69727;53.132;8.230;2024-03-22T01:19:21;101853.53;;;9.39;82.91
80401;BME280;69727;53.132;8.230;2024-03-22T01:21:48;101843.03;;;9.46;82.63
80401;BME280;69727;53.132;8.230;2024-03-22T01:24:13;101838.13;;;9.41;83.00
80401;BME280;69727;53.132;8.230;2024-03-22T01:26:39;101813.69;;;9.44;82.63
80401;BME280;69727;53.132;8.230;2024-03-22T01:29:04;101801.97;;;9.45;82.64
80401;BME280;69727;53.132;8.230;2024-03-22T01:31:29;101796.09;;;9.42;83.05
80401;BME280;69727;53.132;8.230;2024-03-22T01:33:55;101789.91;;;9.50;82.90
80401;BME280;69727;53.132;8.230;2024-03-22T01:36:20;101789.75;;;9.51;82.85
80401;BME280;69727;53.132;8.230;2024-03-22T01:38:46;101795.09;;;9.43;83.35
80401;BME280;69727;53.132;8.230;2024-03-22T01:41:11;101794.59;;;9.48;83.33
80401;BME280;69727;53.132;8.230;2024-03-22T01:43:36;101797.28;;;9.56;83.05
80401;BME280;69727;53.132;8.230;2024-03-22T01:46:02;101791.25;;;9.54;83.12
80401;BME280;69727;53.132;8.230;2024-03-22T01:48:28;101790.94;;;9.57;83.27
80401;BME280;69727;53.132;8.230;2024-03-22T01:50:53;101791.78;;;9.57;83.07
80401;BME280;69727;53.132;8.230;2024-03-22T01:53:19;101789.56;;;9.61;83.30
80401;BME280;69727;53.132;8.230;2024-03-22T01:55:45;101781.06;;;9.73;83.04
80401;BME280;69727;53.132;8.230;2024-03-22T01:58:11;101784.91;;;9.63;83.33
80401;BME280;69727;53.132;8.230;2024-03-22T02:00:37;101772.84;;;9.59;83.46
80401;BME280;69727;53.132;8.230;2024-03-22T02:03:03;101771.16;;;9.58;83.82
80401;BME280;69727;53.132;8.230;2024-03-22T02:05:28;101762.97;;;9.59;83.65
80401;BME280;69727;53.132;8.230;2024-03-22T02:07:54;101756.56;;;9.60;83.67
80401;BME280;69727;53.132;8.230;2024-03-22T02:10:19;101756.25;;;9.63;83.65
80401;BME280;69727;53.132;8.230;2024-03-22T02:12:45;101765.63;;;9.67;83.55
80401;BME280;69727;53.132;8.230;2024-03-22T02:15:11;101757.78;;;9.74;83.38
80401;BME280;69727;53.132;8.230;2024-03-22T02:17:36;101748.22;;;9.71;83.60
80401;BME280;69727;53.132;8.230;2024-03-22T02:20:02;101750.03;;;9.71;83.80
80401;BME280;69727;53.132;8.230;2024-03-22T02:22:29;101753.25;;;9.66;83.91
80401;BME280;69727;53.132;8.230;2024-03-22T02:24:54;101732.28;;;9.78;83.29
80401;BME280;69727;53.132;8.230;2024-03-22T02:27:20;101726.41;;;9.74;83.49
80401;BME280;69727;53.132;8.230;2024-03-22T02:29:46;101727.25;;;9.75;83.82
80401;BME280;69727;53.132;8.230;2024-03-22T02:32:11;101719.88;;;9.77;83.80
80401;BME280;69727;53.132;8.230;2024-03-22T02:34:37;101721.72;;;9.84;83.59
80401;BME280;69727;53.132;8.230;2024-03-22T02:37:02;101724.72;;;9.90;83.53
80401;BME280;69727;53.132;8.230;2024-03-22T02:39:28;101705.78;;;9.83;83.68
80401;BME280;69727;53.132;8.230;2024-03-22T02:41:54;101705.94;;;9.90;83.59
80401;BME280;69727;53.132;8.230;2024-03-22T02:44:19;101703.44;;;9.88;83.70
80401;BME280;69727;53.132;8.230;2024-03-22T02:46:45;101693.38;;;9.82;83.94
80401;BME280;69727;53.132;8.230;2024-03-22T02:49:10;101687.16;;;9.81;84.15
80401;BME280;69727;53.132;8.230;2024-03-22T02:51:36;101688.19;;;9.80;84.25
80401;BME280;69727;53.132;8.230;2024-03-22T02:54:01;101686.16;;;9.82;84.27
80401;BME280;69727;53.132;8.230;2024-03-22T02:56:27;101676.13;;;9.84;84.33
80401;BME280;69727;53.132;8.230;2024-03-22T02:58:53;101671.25;;;9.88;84.21
80401;BME280;69727;53.132;8.230;2024-03-22T03:01:18;101663.03;;;9.81;84.53
80401;BME280;69727;53.132;8.230;2024-03-22T03:03:43;101664.91;;;9.81;85.03
80401;BME280;69727;53.132;8.230;2024-03-22T03:06:09;101667.38;;;9.91;84.68
80401;BME280;69727;53.132;8.230;2024-03-22T03:08:35;101675.25;;;9.92;84.77
80401;BME280;69727;53.132;8.230;2024-03-22T03:11:00;101665.53;;;9.91;84.55
80401;BME280;69727;53.132;8.230;2024-03-22T03:13:26;101659.16;;;9.92;84.77
80401;BME280;69727;53.132;8.230;2024-03-22T03:15:51;101664.00;;;9.97;84.48
80401;BME280;69727;53.132;8.230;2024-03-22T03:18:17;101657.16;;;9.94;84.96
80401;BME280;69727;53.132;8.230;2024-03-22T03:20:43;101656.47;;;9.92;85.32
80401;BME280;69727;53.132;8.230;2024-03-22T03:23:08;101646.59;;;9.93;85.13
80401;BME280;69727;53.132;8.230;2024-03-22T03:25:34;101645.06;;;9.98;85.02
80401;BME280;69727;53.132;8.230;2024-03-22T03:27:59;101639.88;;;9.97;85.17
80401;BME280;69727;53.132;8.230;2024-03-22T03:30:24;101646.88;;;10.14;84.67
80401;BME280;69727;53.132;8.230;2024-03-22T03:32:51;101641.00;;;10.02;85.14
80401;BME280;69727;53.132;8.230;2024-03-22T03:35:16;101628.81;;;10.00;85.29
80401;BME280;69727;53.132;8.230;2024-03-22T03:37:42;101622.91;;;10.04;85.45
80401;BME280;69727;53.132;8.230;2024-03-22T03:40:08;101632.94;;;10.10;85.26
80401;BME280;69727;53.132;8.230;2024-03-22T03:42:33;101619.38;;;10.12;85.33
80401;BME280;69727;53.132;8.230;2024-03-22T03:44:59;101603.25;;;10.20;85.31
80401;BME280;69727;53.132;8.230;2024-03-22T03:47:24;101605.94;;;10.12;85.51
80401;BME280;69727;53.132;8.230;2024-03-22T03:49:49;101608.63;;;10.12;85.60
80401;BME280;69727;53.132;8.230;2024-03-22T03:52:15;101595.25;;;10.04;85.98
80401;BME280;69727;53.132;8.230;2024-03-22T03:54:40;101594.53;;;10.10;85.84
80401;BME280;69727;53.132;8.230;2024-03-22T03:57:06;101600.59;;;10.12;85.90
80401;BME280;69727;53.132;8.230;2024-03-22T03:59:31;101580.66;;;10.06;86.43
80401;BME280;69727;53.132;8.230;2024-03-22T04:01:56;101583.13;;;10.16;86.07
80401;BME280;69727;53.132;8.230;2024-03-22T04:04:22;101578.44;;;10.18;85.91
80401;BME280;69727;53.132;8.230;2024-03-22T04:06:47;101575.91;;;10.16;86.06
80401;BME280;69727;53.132;8.230;2024-03-22T04:09:13;101581.09;;;10.26;85.88
80401;BME280;69727;53.132;8.230;2024-03-22T04:11:38;101582.81;;;10.19;86.04
80401;BME280;69727;53.132;8.230;2024-03-22T04:14:04;101584.94;;;10.23;86.15
80401;BME280;69727;53.132;8.230;2024-03-22T04:16:30;101568.53;;;10.18;86.38
80401;BME280;69727;53.132;8.230;2024-03-22T04:18:56;101571.72;;;10.22;86.39
80401;BME280;69727;53.132;8.230;2024-03-22T04:21:21;101569.00;;;10.30;85.92
80401;BME280;69727;53.132;8.230;2024-03-22T04:23:47;101574.38;;;10.30;86.28
80401;BME280;69727;53.132;8.230;2024-03-22T04:26:12;101572.34;;;10.32;86.14
80401;BME280;69727;53.132;8.230;2024-03-22T04:28:38;101581.38;;;10.31;86.44
80401;BME280;69727;53.132;8.230;2024-03-22T04:31:05;101575.19;;;10.31;86.36
80401;BME280;69727;53.132;8.230;2024-03-22T04:33:31;101573.88;;;10.27;86.70
80401;BME280;69727;53.132;8.230;2024-03-22T04:35:58;101574.56;;;10.29;86.55
80401;BME280;69727;53.132;8.230;2024-03-22T04:38:24;101582.44;;;10.30;86.44
80401;BME280;69727;53.132;8.230;2024-03-22T04:40:50;101575.50;;;10.36;86.50
80401;BME280;69727;53.132;8.230;2024-03-22T04:43:16;101566.91;;;10.40;86.32
80401;BME280;69727;53.132;8.230;2024-03-22T04:45:48;101564.78;;;10.36;86.53
80401;BME280;69727;53.132;8.230;2024-03-22T04:48:16;101562.97;;;10.28;86.90
80401;BME280;69727;53.132;8.230;2024-03-22T04:50:42;101557.06;;;10.33;86.46
80401;BME280;69727;53.132;8.230;2024-03-22T04:53:07;101550.34;;;10.37;86.52
80401;BME280;69727;53.132;8.230;2024-03-22T04:55:33;101559.56;;;10.34;86.80
80401;BME280;69727;53.132;8.230;2024-03-22T04:57:58;101548.13;;;10.40;86.48
80401;BME280;69727;53.132;8.230;2024-03-22T05:00:24;101551.81;;;10.39;86.50
80401;BME280;69727;53.132;8.230;2024-03-22T05:02:51;101554.69;;;10.38;86.55
80401;BME280;69727;53.132;8.230;2024-03-22T05:05:16;101566.47;;;10.37;86.86
80401;BME280;69727;53.132;8.230;2024-03-22T05:07:42;101548.84;;;10.34;87.10
80401;BME280;69727;53.132;8.230;2024-03-22T05:10:08;101543.66;;;10.33;87.16
80401;BME280;69727;53.132;8.230;2024-03-22T05:12:34;101549.00;;;10.33;87.48
80401;BME280;69727;53.132;8.230;2024-03-22T05:15:00;101535.63;;;10.24;87.50
80401;BME280;69727;53.132;8.230;2024-03-22T05:17:25;101533.75;;;10.33;87.49
80401;BME280;69727;53.132;8.230;2024-03-22T05:19:51;101530.06;;;10.34;87.53
80401;BME280;69727;53.132;8.230;2024-03-22T05:22:17;101540.28;;;10.31;87.79
80401;BME280;69727;53.132;8.230;2024-03-22T05:24:45;101530.72;;;10.36;87.69
80401;BME280;69727;53.132;8.230;2024-03-22T05:27:10;101522.91;;;10.49;87.17
80401;BME280;69727;53.132;8.230;2024-03-22T05:29:36;101531.31;;;10.46;87.26
80401;BME280;69727;53.132;8.230;2024-03-22T05:32:01;101524.22;;;10.53;86.93
80401;BME280;69727;53.132;8.230;2024-03-22T05:34:29;101527.84;;;10.60;86.61
80401;BME280;69727;53.132;8.230;2024-03-22T05:36:54;101513.97;;;10.57;86.77
80401;BME280;69727;53.132;8.230;2024-03-22T05:39:20;101516.72;;;10.49;87.26
80401;BME280;69727;53.132;8.230;2024-03-22T05:41:45;101511.09;;;10.58;86.93
80401;BME280;69727;53.132;8.230;2024-03-22T05:44:11;101503.34;;;10.63;86.93
80401;BME280;69727;53.132;8.230;2024-03-22T05:46:36;101503.09;;;10.50;87.22
80401;BME280;69727;53.132;8.230;2024-03-22T05:49:02;101493.56;;;10.48;87.72
80401;BME280;69727;53.132;8.230;2024-03-22T05:51:28;101494.97;;;10.58;87.19
80401;BME280;69727;53.132;8.230;2024-03-22T05:53:55;101489.44;;;10.60;87.20
80401;BME280;69727;53.132;8.230;2024-03-22T05:56:21;101498.81;;;10.64;87.02
80401;BME280;69727;53.132;8.230;2024-03-22T05:58:46;101488.13;;;10.56;87.23
80401;BME280;69727;53.132;8.230;2024-03-22T06:01:12;101492.44;;;10.65;87.15
80401;BME280;69727;53.132;8.230;2024-03-22T06:03:37;101489.75;;;10.65;87.17
80401;BME280;69727;53.132;8.230;2024-03-22T06:06:03;101495.28;;;10.63;87.65
80401;BME280;69727;53.132;8.230;2024-03-22T06:08:28;101485.84;;;10.68;87.60
80401;BME280;69727;53.132;8.230;2024-03-22T06:10:55;101490.75;;;10.64;87.89
80401;BME280;69727;53.132;8.230;2024-03-22T06:13:24;101474.69;;;10.56;88.63
80401;BME280;69727;53.132;8.230;2024-03-22T06:15:49;101475.38;;;10.58;88.92
80401;BME280;69727;53.132;8.230;2024-03-22T06:18:15;101483.22;;;10.59;88.57
80401;BME280;69727;53.132;8.230;2024-03-22T06:20:41;101476.16;;;10.58;89.31
80401;BME280;69727;53.132;8.230;2024-03-22T06:23:10;101471.91;;;10.49;89.77
80401;BME280;69727;53.132;8.230;2024-03-22T06:25:36;101476.84;;;10.60;89.17
80401;BME280;69727;53.132;8.230;2024-03-22T06:28:01;101479.06;;;10.57;89.22
80401;BME280;69727;53.132;8.230;2024-03-22T06:30:27;101485.19;;;10.66;88.98
80401;BME280;69727;53.132;8.230;2024-03-22T06:32:53;101481.69;;;10.65;89.12
80401;BME280;69727;53.132;8.230;2024-03-22T06:35:20;101481.84;;;10.63;89.02
80401;BME280;69727;53.132;8.230;2024-03-22T06:37:45;101491.28;;;10.59;89.36
80401;BME280;69727;53.132;8.230;2024-03-22T06:40:11;101486.56;;;10.61;89.42
80401;BME280;69727;53.132;8.230;2024-03-22T06:42:37;101486.75;;;10.60;89.87
80401;BME280;69727;53.132;8.230;2024-03-22T06:45:02;101481.38;;;10.60;89.87
80401;BME280;69727;53.132;8.230;2024-03-22T06:47:28;101485.72;;;10.61;89.92
80401;BME280;69727;53.132;8.230;2024-03-22T06:49:54;101463.53;;;10.67;89.54
80401;BME280;69727;53.132;8.230;2024-03-22T06:52:19;101447.75;;;10.49;90.51
80401;BME280;69727;53.132;8.230;2024-03-22T06:54:45;101444.56;;;10.46;91.83
80401;BME280;69727;53.132;8.230;2024-03-22T06:57:11;101450.59;;;10.25;94.63
80401;BME280;69727;53.132;8.230;2024-03-22T06:59:36;101456.84;;;10.17;95.47
80401;BME280;69727;53.132;8.230;2024-03-22T07:02:02;101453.00;;;10.12;96.05
80401;BME280;69727;53.132;8.230;2024-03-22T07:04:27;101463.31;;;10.00;96.74
80401;BME280;69727;53.132;8.230;2024-03-22T07:06:52;101447.38;;;9.99;97.48
80401;BME280;69727;53.132;8.230;2024-03-22T07:09:18;101445.53;;;9.99;97.46
80401;BME280;69727;53.132;8.230;2024-03-22T07:11:43;101446.84;;;10.03;97.39
80401;BME280;69727;53.132;8.230;2024-03-22T07:14:09;101453.00;;;10.12;97.12
80401;BME280;69727;53.132;8.230;2024-03-22T07:16:34;101451.56;;;10.01;97.58
80401;BME280;69727;53.132;8.230;2024-03-22T07:19:02;101458.41;;;10.04;97.51
80401;BME280;69727;53.132;8.230;2024-03-22T07:21:28;101458.06;;;10.07;97.79
80401;BME280;69727;53.132;8.230;2024-03-22T07:23:54;101442.81;;;10.07;97.99
80401;BME280;69727;53.132;8.230;2024-03-22T07:26:19;101436.97;;;10.04;97.38
80401;BME280;69727;53.132;8.230;2024-03-22T07:28:45;101442.69;;;10.01;97.59
80401;BME280;69727;53.132;8.230;2024-03-22T07:31:10;101447.69;;;10.04;97.84
80401;BME280;69727;53.132;8.230;2024-03-22T07:33:36;101442.56;;;9.94;97.41
80401;BME280;69727;53.132;8.230;2024-03-22T07:36:02;101453.59;;;9.99;98.19
80401;BME280;69727;53.132;8.230;2024-03-22T07:38:28;101446.00;;;10.03;98.30
80401;BME280;69727;53.132;8.230;2024-03-22T07:40:53;101457.41;;;10.05;98.05
80401;BME280;69727;53.132;8.230;2024-03-22T07:43:18;101444.16;;;10.03;98.50
80401;BME280;69727;53.132;8.230;2024-03-22T07:45:44;101449.84;;;10.08;98.21
80401;BME280;69727;53.132;8.230;2024-03-22T07:48:09;101434.66;;;10.01;98.34
80401;BME280;69727;53.132;8.230;2024-03-22T07:50:35;101436.50;;;10.00;98.56
80401;BME280;69727;53.132;8.230;2024-03-22T07:53:01;101434.94;;;10.06;98.18
80401;BME280;69727;53.132;8.230;2024-03-22T07:55:26;101439.97;;;10.09;98.05
80401;BME280;69727;53.132;8.230;2024-03-22T07:57:52;101433.44;;;10.03;98.14
80401;BME280;69727;53.132;8.230;2024-03-22T08:00:17;101424.56;;;10.03;98.41
80401;BME280;69727;53.132;8.230;2024-03-22T08:02:43;101422.53;;;10.05;98.52
80401;BME280;69727;53.132;8.230;2024-03-22T08:05:08;101419.19;;;10.03;98.03
80401;BME280;69727;53.132;8.230;2024-03-22T08:07:34;101410.19;;;9.96;98.44
80401;BME280;69727;53.132;8.230;2024-03-22T08:10:00;101426.94;;;9.98;98.42
80401;BME280;69727;53.132;8.230;2024-03-22T08:12:27;101421.22;;;10.01;98.13
80401;BME280;69727;53.132;8.230;2024-03-22T08:14:53;101424.25;;;9.98;98.13
80401;BME280;69727;53.132;8.230;2024-03-22T08:17:18;101435.16;;;9.96;98.17
80401;BME280;69727;53.132;8.230;2024-03-22T08:19:43;101433.00;;;9.92;97.54
80401;BME280;69727;53.132;8.230;2024-03-22T08:22:10;101422.47;;;9.90;98.02
80401;BME280;69727;53.132;8.230;2024-03-22T08:24:35;101421.81;;;9.88;98.07
80401;BME280;69727;53.132;8.230;2024-03-22T08:27:00;101419.66;;;9.83;98.01
80401;BME280;69727;53.132;8.230;2024-03-22T08:29:26;101421.81;;;9.88;97.78
80401;BME280;69727;53.132;8.230;2024-03-22T08:31:51;101414.59;;;9.89;97.64
80401;BME280;69727;53.132;8.230;2024-03-22T08:34:17;101430.50;;;9.90;97.05
80401;BME280;69727;53.132;8.230;2024-03-22T08:36:42;101432.88;;;9.85;96.88
80401;BME280;69727;53.132;8.230;2024-03-22T08:39:08;101424.19;;;9.83;97.40
80401;BME280;69727;53.132;8.230;2024-03-22T08:41:36;101417.50;;;9.79;97.08
80401;BME280;69727;53.132;8.230;2024-03-22T08:44:02;101421.50;;;9.83;97.39
80401;BME280;69727;53.132;8.230;2024-03-22T08:46:27;101406.06;;;9.85;97.17
80401;BME280;69727;53.132;8.230;2024-03-22T08:48:53;101403.56;;;9.83;97.23
80401;BME280;69727;53.132;8.230;2024-03-22T08:51:19;101404.09;;;9.79;96.35
80401;BME280;69727;53.132;8.230;2024-03-22T08:53:44;101408.09;;;9.83;96.53
80401;BME280;69727;53.132;8.230;2024-03-22T08:56:10;101414.81;;;9.79;96.63
80401;BME280;69727;53.132;8.230;2024-03-22T08:58:36;101402.44;;;9.78;95.96
80401;BME280;69727;53.132;8.230;2024-03-22T09:01:01;101409.09;;;9.82;95.83
80401;BME280;69727;53.132;8.230;2024-03-22T09:03:27;101410.81;;;9.75;96.12
80401;BME280;69727;53.132;8.230;2024-03-22T09:05:53;101403.97;;;9.72;96.45
80401;BME280;69727;53.132;8.230;2024-03-22T09:08:19;101406.47;;;9.74;96.56
80401;BME280;69727;53.132;8.230;2024-03-22T09:10:45;101399.25;;;9.74;96.70
80401;BME280;69727;53.132;8.230;2024-03-22T09:13:10;101413.19;;;9.70;96.60
80401;BME280;69727;53.132;8.230;2024-03-22T09:15:38;101407.56;;;9.88;97.29
80401;BME280;69727;53.132;8.230;2024-03-22T09:18:04;101408.03;;;9.91;96.59
80401;BME280;69727;53.132;8.230;2024-03-22T09:20:30;101412.53;;;9.99;95.97
80401;BME280;69727;53.132;8.230;2024-03-22T09:22:55;101403.81;;;9.97;96.24
80401;BME280;69727;53.132;8.230;2024-03-22T09:25:23;101403.84;;;9.89;96.42
80401;BME280;69727;53.132;8.230;2024-03-22T09:27:48;101407.75;;;9.86;97.07
80401;BME280;69727;53.132;8.230;2024-03-22T09:30:14;101392.16;;;9.81;97.54
80401;BME280;69727;53.132;8.230;2024-03-22T09:32:40;101400.59;;;9.78;97.74
80401;BME280;69727;53.132;8.230;2024-03-22T09:35:06;101381.00;;;9.70;98.09
80401;BME280;69727;53.132;8.230;2024-03-22T09:37:31;101407.78;;;9.78;97.97
80401;BME280;69727;53.132;8.230;2024-03-22T09:39:58;101399.41;;;9.81;98.00
80401;BME280;69727;53.132;8.230;2024-03-22T09:42:25;101405.56;;;9.81;98.15
80401;BME280;69727;53.132;8.230;2024-03-22T09:44:51;101389.03;;;9.78;97.90
80401;BME280;69727;53.132;8.230;2024-03-22T09:47:17;101399.91;;;9.76;98.05
80401;BME280;69727;53.132;8.230;2024-03-22T09:49:44;101397.03;;;9.86;98.10
80401;BME280;69727;53.132;8.230;2024-03-22T09:52:14;101391.28;;;9.89;98.29
80401;BME280;69727;53.132;8.230;2024-03-22T09:54:43;101397.03;;;9.86;98.17
80401;BME280;69727;53.132;8.230;2024-03-22T09:57:15;101390.81;;;9.85;98.61
80401;BME280;69727;53.132;8.230;2024-03-22T09:59:42;101393.13;;;9.89;98.26
80401;BME280;69727;53.132;8.230;2024-03-22T10:02:10;101393.00;;;9.82;98.47
80401;BME280;69727;53.132;8.230;2024-03-22T10:04:37;101395.69;;;9.82;98.45
80401;BME280;69727;53.132;8.230;2024-03-22T10:07:03;101391.16;;;9.82;98.40
80401;BME280;69727;53.132;8.230;2024-03-22T10:09:29;101394.69;;;9.83;98.53
80401;BME280;69727;53.132;8.230;2024-03-22T10:11:56;101390.69;;;9.79;98.54
80401;BME280;69727;53.132;8.230;2024-03-22T10:14:22;101395.56;;;9.75;98.49
80401;BME280;69727;53.132;8.230;2024-03-22T10:16:53;101391.69;;;9.78;98.73
80401;BME280;69727;53.132;8.230;2024-03-22T10:19:22;101385.63;;;9.84;98.69
80401;BME280;69727;53.132;8.230;2024-03-22T10:22:08;101381.09;;;9.84;98.32
80401;BME280;69727;53.132;8.230;2024-03-22T10:24:34;101388.00;;;9.79;98.04
80401;BME280;69727;53.132;8.230;2024-03-22T10:27:00;101390.88;;;9.77;98.54
80401;BME280;69727;53.132;8.230;2024-03-22T10:29:25;101391.66;;;9.86;98.53
80401;BME280;69727;53.132;8.230;2024-03-22T10:31:52;101398.19;;;9.83;98.56
80401;BME280;69727;53.132;8.230;2024-03-22T10:34:18;101390.31;;;9.82;98.40
80401;BME280;69727;53.132;8.230;2024-03-22T10:36:46;101393.00;;;9.82;98.62
80401;BME280;69727;53.132;8.230;2024-03-22T10:39:15;101395.38;;;9.77;98.61
80401;BME280;69727;53.132;8.230;2024-03-22T10:41:42;101392.84;;;9.83;98.77
80401;BME280;69727;53.132;8.230;2024-03-22T10:44:08;101384.44;;;9.87;98.91
80401;BME280;69727;53.132;8.230;2024-03-22T10:46:34;101386.94;;;9.88;98.74
80401;BME280;69727;53.132;8.230;2024-03-22T10:49:02;101379.91;;;9.87;98.81
80401;BME280;69727;53.132;8.230;2024-03-22T10:51:32;101396.31;;;9.92;98.45
80401;BME280;69727;53.132;8.230;2024-03-22T10:54:01;101382.41;;;9.89;98.51
80401;BME280;69727;53.132;8.230;2024-03-22T10:56:29;101380.75;;;9.88;98.50
80401;BME280;69727;53.132;8.230;2024-03-22T10:58:55;101391.78;;;9.93;98.57
80401;BME280;69727;53.132;8.230;2024-03-22T11:01:24;101385.91;;;9.89;98.50
80401;BME280;69727;53.132;8.230;2024-03-22T11:03:50;101389.75;;;9.95;98.43
80401;BME280;69727;53.132;8.230;2024-03-22T11:06:19;101381.88;;;9.93;98.48
80401;BME280;69727;53.132;8.230;2024-03-22T11:08:51;101375.69;;;9.93;98.66
80401;BME280;69727;53.132;8.230;2024-03-22T11:11:18;101380.03;;;9.94;98.68
80401;BME280;69727;53.132;8.230;2024-03-22T11:13:47;101371.88;;;9.87;98.32
80401;BME280;69727;53.132;8.230;2024-03-22T11:16:15;101370.19;;;9.86;98.75
80401;BME280;69727;53.132;8.230;2024-03-22T11:18:42;101379.03;;;9.95;98.71
80401;BME280;69727;53.132;8.230;2024-03-22T11:21:07;101369.81;;;9.89;98.95
80401;BME280;69727;53.132;8.230;2024-03-22T11:23:35;101367.47;;;9.94;98.54
80401;BME280;69727;53.132;8.230;2024-03-22T11:26:02;101359.09;;;9.89;98.50
80401;BME280;69727;53.132;8.230;2024-03-22T11:28:27;101363.75;;;9.95;98.65
80401;BME280;69727;53.132;8.230;2024-03-22T11:30:52;101356.53;;;9.96;98.62
80401;BME280;69727;53.132;8.230;2024-03-22T11:33:18;101351.16;;;9.96;98.61
80401;BME280;69727;53.132;8.230;2024-03-22T11:35:44;101354.34;;;9.99;98.94
80401;BME280;69727;53.132;8.230;2024-03-22T11:38:09;101351.94;;;10.04;98.91
80401;BME280;69727;53.132;8.230;2024-03-22T11:40:35;101349.09;;;10.06;98.99
80401;BME280;69727;53.132;8.230;2024-03-22T11:43:02;101344.56;;;10.06;98.71
80401;BME280;69727;53.132;8.230;2024-03-22T11:45:28;101336.50;;;10.06;98.26
80401;BME280;69727;53.132;8.230;2024-03-22T11:47:54;101342.44;;;10.02;98.61
80401;BME280;69727;53.132;8.230;2024-03-22T11:50:19;101344.38;;;10.08;98.79
80401;BME280;69727;53.132;8.230;2024-03-22T11:52:45;101347.59;;;10.03;98.43
80401;BME280;69727;53.132;8.230;2024-03-22T11:55:14;101341.22;;;10.04;98.76
80401;BME280;69727;53.132;8.230;2024-03-22T11:57:40;101340.56;;;10.02;98.92
80401;BME280;69727;53.132;8.230;2024-03-22T12:00:06;101334.66;;;10.07;98.97
80401;BME280;69727;53.132;8.230;2024-03-22T12:02:35;101326.44;;;10.08;98.84
80401;BME280;69727;53.132;8.230;2024-03-22T12:05:01;101333.41;;;10.17;98.82
80401;BME280;69727;53.132;8.230;2024-03-22T12:07:28;101336.03;;;10.26;99.02
80401;BME280;69727;53.132;8.230;2024-03-22T12:09:54;101326.97;;;10.27;98.60
80401;BME280;69727;53.132;8.230;2024-03-22T12:12:21;101330.59;;;10.34;98.48
80401;BME280;69727;53.132;8.230;2024-03-22T12:14:47;101325.91;;;10.36;98.04
80401;BME280;69727;53.132;8.230;2024-03-22T12:17:13;101325.91;;;10.36;97.96
80401;BME280;69727;53.132;8.230;2024-03-22T12:19:38;101333.56;;;10.39;98.02
80401;BME280;69727;53.132;8.230;2024-03-22T12:22:04;101331.53;;;10.41;98.08
80401;BME280;69727;53.132;8.230;2024-03-22T12:24:31;101337.84;;;10.48;98.17
80401;BME280;69727;53.132;8.230;2024-03-22T12:26:57;101333.97;;;10.50;98.13
80401;BME280;69727;53.132;8.230;2024-03-22T12:29:22;101331.19;;;10.44;97.61
80401;BME280;69727;53.132;8.230;2024-03-22T12:31:49;101329.69;;;10.41;97.68
80401;BME280;69727;53.132;8.230;2024-03-22T12:34:14;101323.22;;;10.36;97.33
80401;BME280;69727;53.132;8.230;2024-03-22T12:36:40;101319.03;;;10.33;97.36
80401;BME280;69727;53.132;8.230;2024-03-22T12:39:05;101320.88;;;10.33;97.95
80401;BME280;69727;53.132;8.230;2024-03-22T12:41:31;101310.88;;;10.27;98.30
80401;BME280;69727;53.132;8.230;2024-03-22T12:43:58;101314.22;;;10.29;98.62
80401;BME280;69727;53.132;8.230;2024-03-22T12:46:24;101317.63;;;10.22;98.31
80401;BME280;69727;53.132;8.230;2024-03-22T12:48:50;101319.75;;;10.27;98.60